Aikoumaru No.8 — JD3288 — position and weather

sailwx.info

Track history (hours):
 
Tides and Currents Weather Stations Pressure Air Temp Water Temp Dewpoint Dewpoint Depression Visibility Wind Speed Wind Dir Waves Ship Positions

Aikoumaru No.8

Last reported at 2016-Jun-23 08:25 UTC. Time now 2016-Jun-25 19:42 UTC.
Position N 35°02' E 139°31'.

Length 74 m; draft 4.8 m.

Type: Cargo ship. MMSI: 431003153.

Date/timePositionNaut miles runAvg speedWind from/ knotsBaromVisibWave heightAir tempDewpointWater temp
2016-Jun-23 08:25N 35°02' E 139°31'1112.1
2016-Jun-23 07:31N 35°07' E 139°42'15 7.6
2016-Jun-23 05:31N 35°22' E 139°40'0 0.1
2016-Jun-23 04:31N 35°22' E 139°40'0 0.0
2016-Jun-23 03:31N 35°22' E 139°40'0 0.0
2016-Jun-23 02:31N 35°22' E 139°40'0 0.0
2016-Jun-23 01:31N 35°22' E 139°40'0 0.0
2016-Jun-23 00:31N 35°22' E 139°40'0 0.0
2016-Jun-22 23:31N 35°22' E 139°40'0 0.0
2016-Jun-22 22:31N 35°22' E 139°40'0 0.0
2016-Jun-22 21:31N 35°22' E 139°40'0 0.1
2016-Jun-22 20:31N 35°22' E 139°40'0 0.0
2016-Jun-22 19:31N 35°22' E 139°40'0 0.0
2016-Jun-22 18:31N 35°22' E 139°40'0 0.0
2016-Jun-22 17:31N 35°22' E 139°40'0 0.0
2016-Jun-22 16:31N 35°22' E 139°40'0 0.1
2016-Jun-22 15:31N 35°22' E 139°40'0 0.0
2016-Jun-22 14:31N 35°22' E 139°40'0 0.0
2016-Jun-22 13:31N 35°22' E 139°40'0 0.0
2016-Jun-22 12:31N 35°22' E 139°40'7 6.8
2016-Jun-22 11:33N 35°17' E 139°45'2 1.8
2016-Jun-22 10:33N 35°18' E 139°44'1010.2
2016-Jun-22 09:33N 35°28' E 139°49'1211.9
2016-Jun-22 08:33N 35°37' E 139°58'3 3.1
2016-Jun-22 07:28N 35°40' E 139°57'0 0.0
2016-Jun-22 06:28N 35°40' E 139°57'0 0.0
2016-Jun-22 05:28N 35°40' E 139°57'0 0.0
2016-Jun-22 04:22N 35°40' E 139°57'0 0.0
2016-Jun-22 03:28N 35°40' E 139°57'0 0.0
2016-Jun-22 02:28N 35°40' E 139°57'0 0.0
2016-Jun-22 01:28N 35°40' E 139°57'0 0.0
2016-Jun-22 00:10N 35°40' E 139°57'0 0.0
2016-Jun-21 23:28N 35°40' E 139°57'0 0.2
2016-Jun-21 22:33N 35°40' E 139°57'3 2.9
2016-Jun-21 21:24N 35°37' E 139°58'0 0.0
2016-Jun-21 20:30N 35°37' E 139°58'0 0.0
2016-Jun-21 19:30N 35°37' E 139°58'0 0.0
2016-Jun-21 18:30N 35°37' E 139°58'0 0.0
2016-Jun-21 17:18N 35°37' E 139°58'0 0.0
2016-Jun-21 16:24N 35°37' E 139°58'0 0.0
2016-Jun-21 15:30N 35°37' E 139°58'0 0.0
2016-Jun-21 14:30N 35°37' E 139°58'0 0.0
2016-Jun-21 13:30N 35°37' E 139°58'0 0.0
2016-Jun-21 12:12N 35°37' E 139°58'0 0.0
2016-Jun-21 11:18N 35°37' E 139°58'0 0.0
2016-Jun-21 10:30N 35°37' E 139°58'1011.0
2016-Jun-21 09:33N 35°30' E 139°49'6 6.3
2016-Jun-21 08:33N 35°27' E 139°42'1 1.2
2016-Jun-21 07:33N 35°27' E 139°41'0 0.0
2016-Jun-21 04:33N 35°27' E 139°41'0 0.0
2016-Jun-21 03:33N 35°27' E 139°41'0 0.0
2016-Jun-21 02:33N 35°27' E 139°41'0 0.0
2016-Jun-21 01:33N 35°27' E 139°41'0 0.0
2016-Jun-21 00:33N 35°27' E 139°41'0 0.0
2016-Jun-20 23:33N 35°27' E 139°41'2 2.1
2016-Jun-20 22:33N 35°26' E 139°42'0 0.1
2016-Jun-20 21:28N 35°26' E 139°42'0 0.0
2016-Jun-20 20:31N 35°26' E 139°42'0 0.0
2016-Jun-20 19:31N 35°26' E 139°42'0 0.1
2016-Jun-20 18:31N 35°26' E 139°42'0 0.0
2016-Jun-20 17:31N 35°26' E 139°42'0 0.1
2016-Jun-20 16:31N 35°26' E 139°42'0 0.0
2016-Jun-20 15:31N 35°26' E 139°42'0 0.1
2016-Jun-20 14:31N 35°26' E 139°42'0 0.0
2016-Jun-20 13:31N 35°26' E 139°42'0 0.0
2016-Jun-20 12:31N 35°26' E 139°42'8 7.9
2016-Jun-20 11:33N 35°18' E 139°44'1110.8
2016-Jun-20 10:33N 35°08' E 139°45'1212.1
2016-Jun-20 09:33N 34°60' E 139°34'233 4.7
2016-Jun-18 08:26N 33°57' E 135°02'1011.2
2016-Jun-18 07:33N 34°07' E 135°00'1211.9
2016-Jun-18 06:32N 34°19' E 134°59'1212.1
2016-Jun-18 05:33N 34°28' E 135°09'1211.6
2016-Jun-18 04:33N 34°38' E 135°16'4 3.7
2016-Jun-18 03:33N 34°42' E 135°15'0 0.0
2016-Jun-18 02:33N 34°42' E 135°15'0 0.0
2016-Jun-18 01:33N 34°42' E 135°15'0 0.0
2016-Jun-18 00:33N 34°42' E 135°15'0 0.0
2016-Jun-17 23:33N 34°42' E 135°15'0 0.0
2016-Jun-17 22:33N 34°42' E 135°15'0 0.0
2016-Jun-17 21:33N 34°42' E 135°15'0 0.0
2016-Jun-17 20:33N 34°42' E 135°15'0 0.0
2016-Jun-17 19:33N 34°42' E 135°15'0 0.0
2016-Jun-17 18:33N 34°42' E 135°15'0 0.0
2016-Jun-17 17:33N 34°42' E 135°15'0 0.0
2016-Jun-17 16:33N 34°42' E 135°15'0 0.0
2016-Jun-17 15:33N 34°42' E 135°15'0 0.0
2016-Jun-17 14:33N 34°42' E 135°15'0 0.0
2016-Jun-17 13:33N 34°42' E 135°15'0 0.0
2016-Jun-17 12:33N 34°42' E 135°15'0 0.0
2016-Jun-17 11:33N 34°42' E 135°15'0 0.0
2016-Jun-17 10:33N 34°42' E 135°15'0 0.0
2016-Jun-17 09:33N 34°42' E 135°15'0 0.0
2016-Jun-17 08:32N 34°42' E 135°15'0 0.0
2016-Jun-17 07:33N 34°42' E 135°15'0 0.0
2016-Jun-17 06:33N 34°42' E 135°15'0 0.0
2016-Jun-17 05:33N 34°42' E 135°15'0 0.0
2016-Jun-17 04:33N 34°42' E 135°15'3 3.4
2016-Jun-17 03:33N 34°39' E 135°16'6 6.0
2016-Jun-17 02:32N 34°37' E 135°23'0 0.0
2016-Jun-17 01:33N 34°37' E 135°23'0 0.0
2016-Jun-17 00:33N 34°37' E 135°23'0 0.0
2016-Jun-16 23:33N 34°37' E 135°23'0 0.0
2016-Jun-16 22:32N 34°37' E 135°23'0 0.0
2016-Jun-16 21:33N 34°37' E 135°23'0 0.0
2016-Jun-16 20:33N 34°37' E 135°23'0 0.0
2016-Jun-16 19:33N 34°37' E 135°23'0 0.0
2016-Jun-16 18:33N 34°37' E 135°23'0 0.0
2016-Jun-16 17:33N 34°37' E 135°23'0 0.0
2016-Jun-16 16:33N 34°37' E 135°23'0 0.0
2016-Jun-16 15:33N 34°37' E 135°23'0 0.0
2016-Jun-16 14:33N 34°37' E 135°23'0 0.0
2016-Jun-16 13:33N 34°37' E 135°23'0 0.0
2016-Jun-16 12:33N 34°37' E 135°23'0 0.0
2016-Jun-16 11:33N 34°37' E 135°23'2 1.7
2016-Jun-16 10:33N 34°39' E 135°24'2 1.5
2016-Jun-16 09:33N 34°40' E 135°26'0 0.0
2016-Jun-16 08:33N 34°40' E 135°26'0 0.0
2016-Jun-16 07:33N 34°40' E 135°26'0 0.0
2016-Jun-16 06:33N 34°40' E 135°26'0 0.0
2016-Jun-16 05:33N 34°40' E 135°26'0 0.0
2016-Jun-16 04:33N 34°40' E 135°26'5 5.1
2016-Jun-16 03:33N 34°36' E 135°21'1111.1
2016-Jun-16 02:33N 34°35' E 135°08'  
2016-Jun-13 10:17N 34°37' E 134°56'911.9
2016-Jun-13 09:33N 34°36' E 135°07'1312.8
2016-Jun-13 08:33N 34°38' E 135°22'  
Track history (hours):
 
Tides and Currents Weather Stations Pressure Air Temp Water Temp Dewpoint Dewpoint Depression Visibility Wind Speed Wind Dir Waves Ship Positions

Aikoumaru No.8

Last reported at 2016-Jun-23 08:25 UTC. Time now 2016-Jun-25 19:42 UTC.
Position N 35°02' E 139°31'.

Length 74 m; draft 4.8 m.

Type: Cargo ship. MMSI: 431003153.

Date/timePositionNaut miles runAvg speedWind from/ knotsBaromVisibWave heightAir tempDewpointWater temp
2016-Jun-23 08:25N 35°02' E 139°31'1112.1
2016-Jun-23 07:31N 35°07' E 139°42'15 7.6
2016-Jun-23 05:31N 35°22' E 139°40'0 0.1
2016-Jun-23 04:31N 35°22' E 139°40'0 0.0
2016-Jun-23 03:31N 35°22' E 139°40'0 0.0
2016-Jun-23 02:31N 35°22' E 139°40'0 0.0
2016-Jun-23 01:31N 35°22' E 139°40'0 0.0
2016-Jun-23 00:31N 35°22' E 139°40'0 0.0
2016-Jun-22 23:31N 35°22' E 139°40'0 0.0
2016-Jun-22 22:31N 35°22' E 139°40'0 0.0
2016-Jun-22 21:31N 35°22' E 139°40'0 0.1
2016-Jun-22 20:31N 35°22' E 139°40'0 0.0
2016-Jun-22 19:31N 35°22' E 139°40'0 0.0
2016-Jun-22 18:31N 35°22' E 139°40'0 0.0
2016-Jun-22 17:31N 35°22' E 139°40'0 0.0
2016-Jun-22 16:31N 35°22' E 139°40'0 0.1
2016-Jun-22 15:31N 35°22' E 139°40'0 0.0
2016-Jun-22 14:31N 35°22' E 139°40'0 0.0
2016-Jun-22 13:31N 35°22' E 139°40'0 0.0
2016-Jun-22 12:31N 35°22' E 139°40'7 6.8
2016-Jun-22 11:33N 35°17' E 139°45'2 1.8
2016-Jun-22 10:33N 35°18' E 139°44'1010.2
2016-Jun-22 09:33N 35°28' E 139°49'1211.9
2016-Jun-22 08:33N 35°37' E 139°58'3 3.1
2016-Jun-22 07:28N 35°40' E 139°57'0 0.0
2016-Jun-22 06:28N 35°40' E 139°57'0 0.0
2016-Jun-22 05:28N 35°40' E 139°57'0 0.0
2016-Jun-22 04:22N 35°40' E 139°57'0 0.0
2016-Jun-22 03:28N 35°40' E 139°57'0 0.0
2016-Jun-22 02:28N 35°40' E 139°57'0 0.0
2016-Jun-22 01:28N 35°40' E 139°57'0 0.0
2016-Jun-22 00:10N 35°40' E 139°57'0 0.0
2016-Jun-21 23:28N 35°40' E 139°57'0 0.2
2016-Jun-21 22:33N 35°40' E 139°57'3 2.9
2016-Jun-21 21:24N 35°37' E 139°58'0 0.0
2016-Jun-21 20:30N 35°37' E 139°58'0 0.0
2016-Jun-21 19:30N 35°37' E 139°58'0 0.0
2016-Jun-21 18:30N 35°37' E 139°58'0 0.0
2016-Jun-21 17:18N 35°37' E 139°58'0 0.0
2016-Jun-21 16:24N 35°37' E 139°58'0 0.0
2016-Jun-21 15:30N 35°37' E 139°58'0 0.0
2016-Jun-21 14:30N 35°37' E 139°58'0 0.0
2016-Jun-21 13:30N 35°37' E 139°58'0 0.0
2016-Jun-21 12:12N 35°37' E 139°58'0 0.0
2016-Jun-21 11:18N 35°37' E 139°58'0 0.0
2016-Jun-21 10:30N 35°37' E 139°58'1011.0
2016-Jun-21 09:33N 35°30' E 139°49'6 6.3
2016-Jun-21 08:33N 35°27' E 139°42'1 1.2
2016-Jun-21 07:33N 35°27' E 139°41'0 0.0
2016-Jun-21 04:33N 35°27' E 139°41'0 0.0
2016-Jun-21 03:33N 35°27' E 139°41'0 0.0
2016-Jun-21 02:33N 35°27' E 139°41'0 0.0
2016-Jun-21 01:33N 35°27' E 139°41'0 0.0
2016-Jun-21 00:33N 35°27' E 139°41'0 0.0
2016-Jun-20 23:33N 35°27' E 139°41'2 2.1
2016-Jun-20 22:33N 35°26' E 139°42'0 0.1
2016-Jun-20 21:28N 35°26' E 139°42'0 0.0
2016-Jun-20 20:31N 35°26' E 139°42'0 0.0
2016-Jun-20 19:31N 35°26' E 139°42'0 0.1
2016-Jun-20 18:31N 35°26' E 139°42'0 0.0
2016-Jun-20 17:31N 35°26' E 139°42'0 0.1
2016-Jun-20 16:31N 35°26' E 139°42'0 0.0
2016-Jun-20 15:31N 35°26' E 139°42'0 0.1
2016-Jun-20 14:31N 35°26' E 139°42'0 0.0
2016-Jun-20 13:31N 35°26' E 139°42'0 0.0
2016-Jun-20 12:31N 35°26' E 139°42'8 7.9
2016-Jun-20 11:33N 35°18' E 139°44'1110.8
2016-Jun-20 10:33N 35°08' E 139°45'1212.1
2016-Jun-20 09:33N 34°60' E 139°34'233 4.7
2016-Jun-18 08:26N 33°57' E 135°02'1011.2
2016-Jun-18 07:33N 34°07' E 135°00'1211.9
2016-Jun-18 06:32N 34°19' E 134°59'1212.1
2016-Jun-18 05:33N 34°28' E 135°09'1211.6
2016-Jun-18 04:33N 34°38' E 135°16'4 3.7
2016-Jun-18 03:33N 34°42' E 135°15'0 0.0
2016-Jun-18 02:33N 34°42' E 135°15'0 0.0
2016-Jun-18 01:33N 34°42' E 135°15'0 0.0
2016-Jun-18 00:33N 34°42' E 135°15'0 0.0
2016-Jun-17 23:33N 34°42' E 135°15'0 0.0
2016-Jun-17 22:33N 34°42' E 135°15'0 0.0
2016-Jun-17 21:33N 34°42' E 135°15'0 0.0
2016-Jun-17 20:33N 34°42' E 135°15'0 0.0
2016-Jun-17 19:33N 34°42' E 135°15'0 0.0
2016-Jun-17 18:33N 34°42' E 135°15'0 0.0
2016-Jun-17 17:33N 34°42' E 135°15'0 0.0
2016-Jun-17 16:33N 34°42' E 135°15'0 0.0
2016-Jun-17 15:33N 34°42' E 135°15'0 0.0
2016-Jun-17 14:33N 34°42' E 135°15'0 0.0
2016-Jun-17 13:33N 34°42' E 135°15'0 0.0
2016-Jun-17 12:33N 34°42' E 135°15'0 0.0
2016-Jun-17 11:33N 34°42' E 135°15'0 0.0
2016-Jun-17 10:33N 34°42' E 135°15'0 0.0
2016-Jun-17 09:33N 34°42' E 135°15'0 0.0
2016-Jun-17 08:32N 34°42' E 135°15'0 0.0
2016-Jun-17 07:33N 34°42' E 135°15'0 0.0
2016-Jun-17 06:33N 34°42' E 135°15'0 0.0
2016-Jun-17 05:33N 34°42' E 135°15'0 0.0
2016-Jun-17 04:33N 34°42' E 135°15'3 3.4
2016-Jun-17 03:33N 34°39' E 135°16'6 6.0
2016-Jun-17 02:32N 34°37' E 135°23'0 0.0
2016-Jun-17 01:33N 34°37' E 135°23'0 0.0
2016-Jun-17 00:33N 34°37' E 135°23'0 0.0
2016-Jun-16 23:33N 34°37' E 135°23'0 0.0
2016-Jun-16 22:32N 34°37' E 135°23'0 0.0
2016-Jun-16 21:33N 34°37' E 135°23'0 0.0
2016-Jun-16 20:33N 34°37' E 135°23'0 0.0
2016-Jun-16 19:33N 34°37' E 135°23'0 0.0
2016-Jun-16 18:33N 34°37' E 135°23'0 0.0
2016-Jun-16 17:33N 34°37' E 135°23'0 0.0
2016-Jun-16 16:33N 34°37' E 135°23'0 0.0
2016-Jun-16 15:33N 34°37' E 135°23'0 0.0
2016-Jun-16 14:33N 34°37' E 135°23'0 0.0
2016-Jun-16 13:33N 34°37' E 135°23'0 0.0
2016-Jun-16 12:33N 34°37' E 135°23'0 0.0
2016-Jun-16 11:33N 34°37' E 135°23'2 1.7
2016-Jun-16 10:33N 34°39' E 135°24'2 1.5
2016-Jun-16 09:33N 34°40' E 135°26'0 0.0
2016-Jun-16 08:33N 34°40' E 135°26'0 0.0
2016-Jun-16 07:33N 34°40' E 135°26'0 0.0
2016-Jun-16 06:33N 34°40' E 135°26'0 0.0
2016-Jun-16 05:33N 34°40' E 135°26'0 0.0
2016-Jun-16 04:33N 34°40' E 135°26'5 5.1
2016-Jun-16 03:33N 34°36' E 135°21'1111.1
2016-Jun-16 02:33N 34°35' E 135°08'  
2016-Jun-13 10:17N 34°37' E 134°56'911.9
2016-Jun-13 09:33N 34°36' E 135°07'1312.8
2016-Jun-13 08:33N 34°38' E 135°22'  

Dump ship's entire track history